createdAt,value
2018-08-12T00:01:53.426Z,99.90
2018-08-12T00:04:22.271Z,99.90
2018-08-12T00:06:51.021Z,99.90
2018-08-12T00:09:19.758Z,99.90
2018-08-12T00:11:48.691Z,99.90
2018-08-12T00:14:17.456Z,99.90
2018-08-12T00:16:46.251Z,99.90
2018-08-12T00:19:14.993Z,99.90
2018-08-12T00:21:43.801Z,99.90
2018-08-12T00:24:12.447Z,99.90
2018-08-12T00:26:41.177Z,99.90
2018-08-12T00:29:09.997Z,99.90
2018-08-12T00:31:38.854Z,99.90
2018-08-12T00:34:07.694Z,99.90
2018-08-12T00:36:36.498Z,99.90
2018-08-12T00:39:10.394Z,99.90
2018-08-12T00:41:39.271Z,99.90
2018-08-12T00:44:08.209Z,99.90
2018-08-12T00:46:37.094Z,99.90
2018-08-12T00:49:05.966Z,99.90
2018-08-12T00:51:34.748Z,99.90
2018-08-12T00:54:03.510Z,99.90
2018-08-12T00:56:32.185Z,99.90
2018-08-12T00:59:00.923Z,99.90
2018-08-12T01:01:29.655Z,99.90
2018-08-12T01:03:58.442Z,99.90
2018-08-12T01:06:27.234Z,99.90
2018-08-12T01:08:56.087Z,99.90
2018-08-12T01:11:25.287Z,99.90
2018-08-12T01:13:54.061Z,99.90
2018-08-12T01:16:22.843Z,99.90
2018-08-12T01:18:51.534Z,99.90
2018-08-12T01:21:20.334Z,99.90
2018-08-12T01:23:49.092Z,99.90
2018-08-12T01:26:17.843Z,99.90
2018-08-12T01:28:46.526Z,99.90
2018-08-12T01:31:15.259Z,99.90
2018-08-12T01:33:44.008Z,99.90
2018-08-12T01:36:12.863Z,99.90
2018-08-12T01:38:41.637Z,99.90
2018-08-12T01:41:10.407Z,99.90
2018-08-12T01:43:39.192Z,99.90
2018-08-12T01:46:08.081Z,99.90
2018-08-12T01:48:36.830Z,99.90
2018-08-12T01:51:05.667Z,99.90
2018-08-12T01:53:34.455Z,99.90
2018-08-12T01:56:03.623Z,99.90
2018-08-12T01:58:32.346Z,99.90
2018-08-12T02:01:01.122Z,99.90
2018-08-12T02:03:29.998Z,99.90
2018-08-12T02:05:58.747Z,99.90
2018-08-12T02:08:27.527Z,99.90
2018-08-12T02:10:56.231Z,99.90
2018-08-12T02:13:25.049Z,99.90
2018-08-12T02:15:53.850Z,99.90
2018-08-12T02:18:22.598Z,99.90
2018-08-12T02:20:51.294Z,99.90
2018-08-12T02:23:19.953Z,99.90
2018-08-12T02:25:48.744Z,99.90
2018-08-12T02:28:17.487Z,99.90
2018-08-12T02:30:46.230Z,99.90
2018-08-12T02:33:15.084Z,99.90
2018-08-12T02:35:43.839Z,99.90
2018-08-12T02:38:12.634Z,99.90
2018-08-12T02:40:41.417Z,99.90
2018-08-12T02:43:10.172Z,99.90
2018-08-12T02:45:38.870Z,99.90
2018-08-12T02:48:07.647Z,99.90
2018-08-12T02:50:36.426Z,99.90
2018-08-12T02:53:05.386Z,99.90
2018-08-12T02:55:34.074Z,99.90
2018-08-12T02:58:03.711Z,99.90
2018-08-12T03:00:32.391Z,99.90
2018-08-12T03:03:01.116Z,99.90
2018-08-12T03:05:29.802Z,99.90
2018-08-12T03:07:58.483Z,99.90
2018-08-12T03:10:27.198Z,99.90
2018-08-12T03:12:55.928Z,99.90
2018-08-12T03:15:24.683Z,99.90
2018-08-12T03:17:53.439Z,99.90
2018-08-12T03:20:22.223Z,99.90
2018-08-12T03:22:50.967Z,99.90
2018-08-12T03:25:19.557Z,99.90
2018-08-12T03:27:48.285Z,99.90
2018-08-12T03:30:17.176Z,99.90
2018-08-12T03:32:47.856Z,99.90
2018-08-12T03:35:16.566Z,99.90
2018-08-12T03:37:45.345Z,99.90
2018-08-12T03:40:14.234Z,99.90
2018-08-12T03:42:43.853Z,99.90
2018-08-12T03:45:12.585Z,99.90
2018-08-12T03:47:41.346Z,99.90
2018-08-12T03:50:11.147Z,99.90
2018-08-12T03:52:40.239Z,99.90
2018-08-12T03:55:09.238Z,99.90
2018-08-12T03:57:38.040Z,99.90
2018-08-12T04:00:11.431Z,99.90
2018-08-12T04:02:40.256Z,99.90
2018-08-12T04:05:09.004Z,99.90
2018-08-12T04:07:37.802Z,99.90
2018-08-12T04:10:07.144Z,99.90
2018-08-12T04:12:35.824Z,99.90
2018-08-12T04:15:05.818Z,99.90
2018-08-12T04:17:34.600Z,99.90
2018-08-12T04:20:03.378Z,99.90
2018-08-12T04:22:32.136Z,99.90
2018-08-12T04:25:00.867Z,99.90
2018-08-12T04:27:29.616Z,99.90
2018-08-12T04:29:58.498Z,99.90
2018-08-12T04:32:27.365Z,99.90
2018-08-12T04:34:56.154Z,99.90
2018-08-12T04:37:24.838Z,99.90
2018-08-12T04:39:53.557Z,99.90
2018-08-12T04:42:22.254Z,99.90
2018-08-12T04:44:51.045Z,99.90
2018-08-12T04:47:19.796Z,99.90
2018-08-12T04:49:48.566Z,99.90
2018-08-12T04:52:17.250Z,99.90
2018-08-12T04:54:46.011Z,99.90
2018-08-12T04:57:14.758Z,99.90
2018-08-12T04:59:43.606Z,99.90
2018-08-12T05:02:12.384Z,99.90
2018-08-12T05:04:41.102Z,99.90
2018-08-12T05:07:09.907Z,99.90
2018-08-12T05:12:42.198Z,99.90
2018-08-12T05:15:11.118Z,99.90
2018-08-12T05:17:40.377Z,99.90
2018-08-12T05:20:09.722Z,99.90
2018-08-12T05:22:44.652Z,99.90
2018-08-12T05:25:13.622Z,99.90
2018-08-12T05:27:44.572Z,99.90
2018-08-12T05:30:20.579Z,99.90
2018-08-12T05:32:49.383Z,99.90
2018-08-12T05:35:18.209Z,99.90
2018-08-12T05:37:46.885Z,99.90
2018-08-12T05:40:15.630Z,99.90
2018-08-12T05:42:44.417Z,99.90
2018-08-12T05:45:13.518Z,99.90
2018-08-12T05:47:42.363Z,99.90
2018-08-12T05:50:11.203Z,99.90
2018-08-12T05:52:40.047Z,99.90
2018-08-12T05:55:09.248Z,99.90
2018-08-12T05:57:38.127Z,99.90
2018-08-12T06:00:09.448Z,99.90
2018-08-12T06:02:38.198Z,99.90
2018-08-12T06:05:07.451Z,99.90
2018-08-12T06:07:40.191Z,99.90
2018-08-12T06:10:10.670Z,99.90
2018-08-12T06:12:39.742Z,99.90
2018-08-12T06:15:10.010Z,99.90
2018-08-12T06:17:38.969Z,99.90
2018-08-12T06:20:10.103Z,99.90
2018-08-12T06:22:38.865Z,99.90
2018-08-12T06:25:08.061Z,99.90
2018-08-12T06:27:36.823Z,99.90
2018-08-12T06:30:12.611Z,99.90
2018-08-12T06:32:41.522Z,99.90
2018-08-12T06:35:10.999Z,99.90
2018-08-12T06:37:39.794Z,99.90
2018-08-12T06:40:11.411Z,99.90
2018-08-12T06:42:41.743Z,99.90
2018-08-12T06:45:16.854Z,99.90
2018-08-12T06:47:46.864Z,99.90
2018-08-12T06:50:15.574Z,99.90
2018-08-12T06:52:44.339Z,99.90
2018-08-12T06:55:13.894Z,99.90
2018-08-12T06:57:43.610Z,99.90
2018-08-12T07:00:16.711Z,99.90
2018-08-12T07:02:45.489Z,99.90
2018-08-12T07:05:14.249Z,99.90
2018-08-12T07:07:43.067Z,99.90
2018-08-12T07:10:13.686Z,99.90
2018-08-12T07:12:42.569Z,99.90
2018-08-12T07:15:13.801Z,99.90
2018-08-12T07:17:43.735Z,99.90
2018-08-12T07:20:13.348Z,99.90
2018-08-12T07:22:46.253Z,99.40
2018-08-12T07:25:15.392Z,93.40
2018-08-12T07:30:45.132Z,90.80
2018-08-12T07:33:13.939Z,88.10
2018-08-12T07:35:42.722Z,83.60
2018-08-12T07:38:11.511Z,80.10
2018-08-12T07:40:40.294Z,77.80
2018-08-12T07:43:09.051Z,76.10
2018-08-12T07:45:37.769Z,71.70
2018-08-12T07:48:06.748Z,70.10
2018-08-12T07:50:35.466Z,66.60
2018-08-12T07:53:04.199Z,63.00
2018-08-12T07:55:32.994Z,62.30
2018-08-12T07:58:01.729Z,59.40
2018-08-12T08:00:30.444Z,57.70
2018-08-12T08:02:59.242Z,56.30
2018-08-12T08:05:28.054Z,55.90
2018-08-12T08:07:56.921Z,54.70
2018-08-12T08:10:25.617Z,54.90
2018-08-12T08:12:54.335Z,55.10
2018-08-12T08:15:22.949Z,54.80
2018-08-12T08:17:51.777Z,52.20
2018-08-12T08:20:20.427Z,53.90
2018-08-12T08:22:49.116Z,53.40
2018-08-12T08:25:17.865Z,52.40
2018-08-12T08:27:46.588Z,52.60
2018-08-12T08:30:15.980Z,53.60
2018-08-12T08:32:44.818Z,51.80
2018-08-12T08:35:14.254Z,52.00
2018-08-12T08:37:43.603Z,50.90
2018-08-12T08:40:15.829Z,52.00
2018-08-12T08:42:44.719Z,50.30
2018-08-12T08:45:15.805Z,50.30
2018-08-12T08:47:45.987Z,50.60
2018-08-12T08:50:14.983Z,49.10
2018-08-12T08:52:43.983Z,50.00
2018-08-12T08:55:13.758Z,50.00
2018-08-12T08:57:42.568Z,49.20
2018-08-12T09:00:14.657Z,50.30
2018-08-12T09:02:45.634Z,48.60
2018-08-12T09:05:15.287Z,48.80
2018-08-12T09:07:44.280Z,47.50
2018-08-12T09:10:14.437Z,46.70
2018-08-12T09:12:43.135Z,46.60
2018-08-12T09:15:13.874Z,48.70
2018-08-12T09:17:49.038Z,46.30
2018-08-12T09:20:19.017Z,46.70
2018-08-12T09:22:47.813Z,46.80
2018-08-12T09:25:16.994Z,47.80
2018-08-12T09:27:45.701Z,48.10
2018-08-12T09:30:16.594Z,48.10
2018-08-12T09:32:45.988Z,47.10
2018-08-12T09:35:14.749Z,46.10
2018-08-12T09:37:43.483Z,47.90
2018-08-12T09:40:13.861Z,48.60
2018-08-12T09:42:43.632Z,47.80
2018-08-12T09:45:14.454Z,46.30
2018-08-12T09:47:43.168Z,45.70
2018-08-12T09:50:13.293Z,44.90
2018-08-12T09:52:42.215Z,44.80
2018-08-12T09:55:11.722Z,44.10
2018-08-12T09:57:40.308Z,42.40
2018-08-12T10:00:18.482Z,43.90
2018-08-12T10:02:47.132Z,42.20
2018-08-12T10:05:16.166Z,42.20
2018-08-12T10:07:44.952Z,42.10
2018-08-12T10:10:13.823Z,43.80
2018-08-12T10:12:43.125Z,43.70
2018-08-12T10:15:12.148Z,42.20
2018-08-12T10:17:42.197Z,42.40
2018-08-12T10:20:10.949Z,43.60
2018-08-12T10:22:39.595Z,43.20
2018-08-12T10:25:09.526Z,42.70
2018-08-12T10:27:38.314Z,42.80
2018-08-12T10:30:09.458Z,43.60
2018-08-12T10:32:38.328Z,43.10
2018-08-12T10:35:08.143Z,43.20
2018-08-12T10:37:40.790Z,42.40
2018-08-12T10:40:12.446Z,42.40
2018-08-12T10:42:41.202Z,42.00
2018-08-12T10:45:10.874Z,43.10
2018-08-12T10:47:39.882Z,41.80
2018-08-12T10:50:16.440Z,41.90
2018-08-12T10:52:45.871Z,42.10
2018-08-12T10:55:15.881Z,41.40
2018-08-12T10:57:44.695Z,40.50
2018-08-12T11:00:18.234Z,40.60
2018-08-12T11:02:51.899Z,41.30
2018-08-12T11:05:20.661Z,43.10
2018-08-12T11:07:51.753Z,43.00
2018-08-12T11:10:28.704Z,42.80
2018-08-12T11:12:57.389Z,42.70
2018-08-12T11:15:26.054Z,42.90
2018-08-12T11:17:54.855Z,43.60
2018-08-12T11:20:23.728Z,43.70
2018-08-12T11:22:52.353Z,41.80
2018-08-12T11:25:21.012Z,43.80
2018-08-12T11:27:49.639Z,43.30
2018-08-12T11:30:18.678Z,43.20
2018-08-12T11:32:47.308Z,43.30
2018-08-12T11:35:17.013Z,44.00
2018-08-12T11:37:46.187Z,43.50
2018-08-12T11:40:15.629Z,41.20
2018-08-12T11:42:44.441Z,42.10
2018-08-12T11:45:14.490Z,41.30
2018-08-12T11:47:44.890Z,40.60
2018-08-12T11:50:14.214Z,42.60
2018-08-12T11:52:43.723Z,42.80
2018-08-12T11:55:13.528Z,43.60
2018-08-12T11:57:42.217Z,41.80
2018-08-12T12:00:16.917Z,42.10
2018-08-12T12:02:47.175Z,41.40
2018-08-12T12:05:15.915Z,40.30
2018-08-12T12:07:44.933Z,40.40
2018-08-12T12:10:16.008Z,39.70
2018-08-12T12:12:45.839Z,41.30
2018-08-12T12:24:12.425Z,39.90
2018-08-12T12:26:41.061Z,40.90
2018-08-12T12:29:09.732Z,41.50
2018-08-12T12:31:38.381Z,42.20
2018-08-12T12:34:07.237Z,41.80
2018-08-12T12:36:35.898Z,40.50
2018-08-12T12:39:07.040Z,40.60
2018-08-12T12:47:27.876Z,42.20
2018-08-12T12:49:56.501Z,42.30
2018-08-12T12:52:25.123Z,42.60
2018-08-12T12:54:53.763Z,42.20
2018-08-12T12:57:22.726Z,41.00
2018-08-12T12:59:51.387Z,40.90
2018-08-12T13:02:20.042Z,41.00
2018-08-12T13:04:48.633Z,40.50
2018-08-12T13:07:17.295Z,41.90
2018-08-12T13:09:45.907Z,41.30
2018-08-12T13:12:14.535Z,40.80
2018-08-12T13:14:43.178Z,40.70
2018-08-12T13:17:11.745Z,40.90
2018-08-12T13:19:40.331Z,42.10
2018-08-12T13:22:09.055Z,41.40
2018-08-12T13:24:37.731Z,41.40
2018-08-12T13:27:06.458Z,41.60
2018-08-12T13:29:35.123Z,40.70
2018-08-12T13:32:03.855Z,41.20
2018-08-12T13:34:32.488Z,41.00
2018-08-12T13:37:01.169Z,40.00
2018-08-12T13:39:29.626Z,41.40
2018-08-12T13:41:58.113Z,40.30
2018-08-12T13:44:26.571Z,39.70
2018-08-12T13:47:09.451Z,40.00
2018-08-12T13:49:37.944Z,41.80
2018-08-12T13:52:06.669Z,41.00
2018-08-12T13:54:35.141Z,41.70
2018-08-12T13:57:03.637Z,43.10
2018-08-12T13:59:32.089Z,41.00
2018-08-12T14:02:01.620Z,40.40
2018-08-12T14:04:30.181Z,41.20
2018-08-12T14:07:10.873Z,41.60
2018-08-12T14:09:39.264Z,41.60
2018-08-12T14:12:07.778Z,42.70
2018-08-12T14:14:36.248Z,40.10
2018-08-12T14:17:04.818Z,40.50
2018-08-12T14:19:33.354Z,39.70
2018-08-12T14:22:12.492Z,41.00
2018-08-12T14:24:40.970Z,41.90
2018-08-12T14:27:09.477Z,41.80
2018-08-12T14:29:37.971Z,42.10
2018-08-12T14:32:06.845Z,40.70
2018-08-12T14:34:36.423Z,41.90
2018-08-12T14:37:04.920Z,41.80
2018-08-12T14:39:49.737Z,42.10
2018-08-12T14:42:18.283Z,42.30
2018-08-12T14:44:46.832Z,43.40
2018-08-12T14:47:15.443Z,43.60
2018-08-12T14:49:47.929Z,43.10
2018-08-12T14:52:16.441Z,41.50
2018-08-12T14:54:44.967Z,41.10
2018-08-12T14:57:13.384Z,40.80
2018-08-12T14:59:41.907Z,41.90
2018-08-12T15:02:10.380Z,42.50
2018-08-12T15:04:38.941Z,41.90
2018-08-12T15:07:07.698Z,43.30
2018-08-12T15:09:36.325Z,42.20
2018-08-12T15:12:05.155Z,42.50
2018-08-12T15:14:33.850Z,41.50
2018-08-12T15:17:02.557Z,42.50
2018-08-12T15:19:31.262Z,42.40
2018-08-12T15:22:00.067Z,42.70
2018-08-12T15:24:28.706Z,44.00
2018-08-12T15:26:57.354Z,42.60
2018-08-12T15:29:26.092Z,42.90
2018-08-12T15:31:54.810Z,42.20
2018-08-12T15:34:23.592Z,42.40
2018-08-12T15:36:52.251Z,44.20
2018-08-12T15:39:20.963Z,42.80
2018-08-12T15:41:49.806Z,43.40
2018-08-12T15:44:18.797Z,43.50
2018-08-12T15:49:42.296Z,43.80
2018-08-12T16:02:07.006Z,42.40
2018-08-12T16:04:35.722Z,42.90
2018-08-12T16:07:08.339Z,43.50
2018-08-12T16:09:37.351Z,43.70
2018-08-12T16:12:13.378Z,43.70
2018-08-12T16:14:42.054Z,43.60
2018-08-12T16:17:10.738Z,44.40
2018-08-12T16:19:39.508Z,44.40
2018-08-12T16:22:08.288Z,44.50
2018-08-12T16:24:37.000Z,44.00
2018-08-12T16:27:05.610Z,44.30
2018-08-12T16:29:34.304Z,43.00
2018-08-12T16:32:02.992Z,43.60
2018-08-12T16:34:31.708Z,44.20
2018-08-12T16:37:00.340Z,43.50
2018-08-12T16:39:29.035Z,44.00
2018-08-12T16:41:57.732Z,43.40
2018-08-12T16:44:26.487Z,44.40
2018-08-12T16:46:55.207Z,43.30
2018-08-12T16:49:23.899Z,43.20
2018-08-12T16:51:52.529Z,43.50
2018-08-12T16:54:21.111Z,43.90
2018-08-12T16:56:49.808Z,43.70
2018-08-12T16:59:18.451Z,44.30
2018-08-12T17:01:47.196Z,45.40
2018-08-12T17:04:15.974Z,46.10
2018-08-12T17:06:44.587Z,46.40
2018-08-12T17:09:13.311Z,47.20
2018-08-12T17:11:42.041Z,46.80
2018-08-12T17:14:10.684Z,48.10
2018-08-12T17:16:39.370Z,48.40
2018-08-12T17:19:08.073Z,47.70
2018-08-12T17:21:36.745Z,48.00
2018-08-12T17:24:05.486Z,48.20
2018-08-12T17:26:34.225Z,48.40
2018-08-12T17:29:02.950Z,47.50
2018-08-12T17:31:31.683Z,47.50
2018-08-12T17:34:02.446Z,47.30
2018-08-12T17:36:31.167Z,47.50
2018-08-12T17:38:59.854Z,47.50
2018-08-12T17:41:28.603Z,47.20
2018-08-12T17:43:58.438Z,47.70
2018-08-12T17:46:27.229Z,47.90
2018-08-12T17:48:56.084Z,48.50
2018-08-12T17:51:24.810Z,49.10
2018-08-12T17:53:53.561Z,49.40
2018-08-12T17:56:22.394Z,49.30
2018-08-12T17:58:51.126Z,49.40
2018-08-12T18:01:19.889Z,49.80
2018-08-12T18:03:48.594Z,50.20
2018-08-12T18:06:17.363Z,51.10
2018-08-12T18:08:46.070Z,51.10
2018-08-12T18:11:14.780Z,52.50
2018-08-12T18:16:40.198Z,55.20
2018-08-12T18:22:04.485Z,56.60
2018-08-12T18:24:33.273Z,58.00
2018-08-12T18:27:02.058Z,57.90
2018-08-12T18:29:30.773Z,57.10
2018-08-12T18:32:07.120Z,58.40
2018-08-12T18:34:35.951Z,58.40
2018-08-12T18:37:04.751Z,59.60
2018-08-12T18:39:35.668Z,61.10
2018-08-12T18:42:04.572Z,61.80
2018-08-12T18:44:53.691Z,61.30
2018-08-12T18:47:22.540Z,60.50
2018-08-12T18:49:51.318Z,61.30
2018-08-12T18:52:20.162Z,62.00
2018-08-12T18:54:49.026Z,62.20
2018-08-12T18:57:21.236Z,62.80
2018-08-12T18:59:49.989Z,62.00
2018-08-12T19:02:24.487Z,62.80
2018-08-12T19:04:53.249Z,64.10
2018-08-12T19:07:22.015Z,65.50
2018-08-12T19:09:50.837Z,64.80
2018-08-12T19:12:19.677Z,64.90
2018-08-12T19:14:52.342Z,65.30
2018-08-12T19:17:21.202Z,65.60
2018-08-12T19:20:01.928Z,66.70
2018-08-12T19:22:30.705Z,66.50
2018-08-12T19:24:59.553Z,66.40
2018-08-12T19:27:28.416Z,67.30
2018-08-12T19:29:57.623Z,67.80
2018-08-12T19:32:26.417Z,67.70
2018-08-12T19:34:55.199Z,67.80
2018-08-12T19:37:23.926Z,68.10
2018-08-12T19:39:52.616Z,68.30
2018-08-12T19:42:21.477Z,68.00
2018-08-12T19:44:50.212Z,68.40
2018-08-12T19:47:18.902Z,68.40
2018-08-12T19:49:47.760Z,68.80
2018-08-12T19:52:16.564Z,69.40
2018-08-12T19:54:45.762Z,69.40
2018-08-12T19:57:14.899Z,69.20
2018-08-12T19:59:44.013Z,69.70
2018-08-12T20:02:13.045Z,69.80
2018-08-12T20:04:41.839Z,70.20
2018-08-12T20:07:12.549Z,70.60
2018-08-12T20:09:41.248Z,70.70
2018-08-12T20:12:10.119Z,71.50
2018-08-12T20:14:38.772Z,73.00
2018-08-12T20:17:07.566Z,72.60
2018-08-12T20:19:36.330Z,72.70
2018-08-12T20:22:05.128Z,73.50
2018-08-12T20:24:33.834Z,74.50
2018-08-12T20:27:02.571Z,75.50
2018-08-12T20:29:31.228Z,76.70
2018-08-12T20:32:05.539Z,77.40
2018-08-12T20:34:34.258Z,77.00
2018-08-12T20:37:02.999Z,77.50
2018-08-12T20:39:31.790Z,77.80
2018-08-12T20:42:00.537Z,78.80
2018-08-12T20:44:29.314Z,79.90
2018-08-12T20:46:58.117Z,81.00
2018-08-12T20:49:26.868Z,80.70
2018-08-12T20:51:55.622Z,81.50
2018-08-12T20:54:24.383Z,81.80
2018-08-12T20:56:53.130Z,82.00
2018-08-12T20:59:22.028Z,83.30
2018-08-12T21:01:50.752Z,83.70
2018-08-12T21:04:19.425Z,82.80
2018-08-12T21:06:48.148Z,82.00
2018-08-12T21:09:16.908Z,82.20
2018-08-12T21:11:45.694Z,82.20
2018-08-12T21:14:14.390Z,82.00
2018-08-12T21:16:43.122Z,82.30
2018-08-12T21:19:11.865Z,83.30
2018-08-12T21:21:40.551Z,84.10
2018-08-12T21:24:19.165Z,84.20
2018-08-12T21:26:47.938Z,84.50
2018-08-12T21:29:16.697Z,85.50
2018-08-12T21:31:45.575Z,85.70
2018-08-12T21:34:14.310Z,86.10
2018-08-12T21:36:43.075Z,86.60
2018-08-12T21:39:13.558Z,87.10
2018-08-12T21:41:42.650Z,87.90
2018-08-12T21:44:11.399Z,88.30
2018-08-12T21:46:40.191Z,89.00
2018-08-12T21:49:08.941Z,90.10
2018-08-12T21:51:37.602Z,89.30
2018-08-12T21:54:06.373Z,89.90
2018-08-12T21:56:35.137Z,89.90
2018-08-12T21:59:03.852Z,90.10
2018-08-12T22:01:32.590Z,91.10
2018-08-12T22:04:01.327Z,92.00
2018-08-12T22:06:30.112Z,92.40
2018-08-12T22:08:58.804Z,93.40
2018-08-12T22:11:27.520Z,94.60
2018-08-12T22:13:56.227Z,95.10
2018-08-12T22:16:25.027Z,95.10
2018-08-12T22:18:53.746Z,96.30
2018-08-12T22:21:22.511Z,96.20
2018-08-12T22:23:51.240Z,97.50
2018-08-12T22:26:19.975Z,98.10
2018-08-12T22:28:48.744Z,99.20
2018-08-12T22:31:17.476Z,99.90
2018-08-12T22:33:46.082Z,99.90
2018-08-12T22:36:14.774Z,99.90
2018-08-12T22:38:43.515Z,99.90
2018-08-12T22:41:12.219Z,99.90
2018-08-12T22:52:27.210Z,99.90
2018-08-12T22:54:55.958Z,99.90
2018-08-12T22:57:24.746Z,99.90
2018-08-12T22:59:53.463Z,99.90
2018-08-12T23:02:22.294Z,99.90
2018-08-12T23:04:51.021Z,99.90
2018-08-12T23:07:19.828Z,99.90
2018-08-12T23:09:48.530Z,99.90
2018-08-12T23:12:17.175Z,99.90
2018-08-12T23:14:45.883Z,99.90
2018-08-12T23:17:14.773Z,99.90
2018-08-12T23:19:43.549Z,99.90
2018-08-12T23:22:12.229Z,99.90
2018-08-12T23:24:40.958Z,99.90
2018-08-12T23:27:09.730Z,99.90
2018-08-12T23:29:38.395Z,99.90
2018-08-12T23:32:07.153Z,99.90
2018-08-12T23:34:35.923Z,99.90
2018-08-12T23:37:04.659Z,99.90
2018-08-12T23:39:33.426Z,99.90
2018-08-12T23:42:02.074Z,99.90
2018-08-12T23:44:30.770Z,99.90
2018-08-12T23:46:59.510Z,99.90
2018-08-12T23:49:28.187Z,99.90
2018-08-12T23:51:56.903Z,99.90
2018-08-12T23:54:25.658Z,99.90
2018-08-12T23:56:54.355Z,99.90
2018-08-12T23:59:23.189Z,99.90
